Time;durP1;ratioP1;P1;durP2;ratioP2;P2;SDS_P1;SDS_P2;PMS_P1;PMS_P2;Temp;Humidity;BMP_temperature;BMP_pressure;BME280_temperature;BME280_humidity;BME280_pressure;Samples;Min_cycle;Max_cycle;Signal;HPM_P1;HPM_P2
2024/03/25 00:02:17;;;;;;;0.10;0.10;;;;;;;;;;5101125;27;20115;-85
2024/03/25 00:04:43;;;;;;;0.10;0.10;;;;;;;;;;5135305;27;20125;-85
2024/03/25 00:07:09;;;;;;;0.10;0.10;;;;;;;;;;5118136;27;20131;-86
2024/03/25 00:09:35;;;;;;;0.10;0.10;;;;;;;;;;5118142;27;20485;-86
2024/03/25 00:12:04;;;;;;;0.10;0.10;;;;;;;;;;5117999;27;20084;-85
2024/03/25 00:14:30;;;;;;;0.17;0.17;;;;;;;;;;5101306;27;20509;-85
2024/03/25 00:16:56;;;;;;;0.10;0.10;;;;;;;;;;5118026;27;20050;-85
2024/03/25 00:19:22;;;;;;;0.15;0.15;;;;;;;;;;5117983;27;20088;-86
2024/03/25 00:21:48;;;;;;;0.10;0.10;;;;;;;;;;5117762;27;20039;-85
2024/03/25 00:24:14;;;;;;;0.22;0.22;;;;;;;;;;5135168;27;20083;-86
2024/03/25 00:26:40;;;;;;;0.20;0.20;;;;;;;;;;5117799;27;20655;-85
2024/03/25 00:29:06;;;;;;;0.20;0.20;;;;;;;;;;5117910;27;20031;-85
2024/03/25 00:31:32;;;;;;;0.10;0.10;;;;;;;;;;5117623;27;20035;-86
2024/03/25 00:33:58;;;;;;;0.10;0.10;;;;;;;;;;5101057;27;20038;-85
2024/03/25 00:36:24;;;;;;;0.10;0.10;;;;;;;;;;5117996;27;20067;-86
2024/03/25 00:38:50;;;;;;;0.10;0.10;;;;;;;;;;5118400;27;20179;-86
2024/03/25 00:41:17;;;;;;;0.10;0.10;;;;;;;;;;5134791;27;20038;-86
2024/03/25 00:43:43;;;;;;;0.20;0.20;;;;;;;;;;5100581;27;20054;-86
2024/03/25 00:46:09;;;;;;;0.10;0.10;;;;;;;;;;5117598;27;20039;-86
2024/03/25 00:48:37;;;;;;;0.10;0.10;;;;;;;;;;5100350;27;20035;-86
2024/03/25 00:51:03;;;;;;;0.10;0.10;;;;;;;;;;5134636;27;20049;-85
2024/03/25 00:53:29;;;;;;;0.10;0.10;;;;;;;;;;5117333;27;20050;-87
2024/03/25 00:55:55;;;;;;;0.20;0.20;;;;;;;;;;5117192;27;20126;-86
2024/03/25 00:58:21;;;;;;;0.10;0.10;;;;;;;;;;5117336;27;20039;-86
2024/03/25 01:00:47;;;;;;;0.10;0.10;;;;;;;;;;5134092;27;20055;-87
2024/03/25 01:03:13;;;;;;;0.10;0.10;;;;;;;;;;5117269;27;20486;-86
2024/03/25 01:05:39;;;;;;;0.10;0.10;;;;;;;;;;5117071;27;20079;-87
2024/03/25 01:08:05;;;;;;;0.10;0.10;;;;;;;;;;5117529;27;20470;-87
2024/03/25 01:10:31;;;;;;;0.38;0.25;;;;;;;;;;5134628;27;20083;-87
2024/03/25 01:12:57;;;;;;;0.10;0.10;;;;;;;;;;5116703;27;20039;-86
2024/03/25 01:15:23;;;;;;;0.10;0.10;;;;;;;;;;5117110;27;20046;-87
2024/03/25 01:17:49;;;;;;;0.10;0.10;;;;;;;;;;5116910;27;20069;-87
2024/03/25 01:20:15;;;;;;;0.10;0.10;;;;;;;;;;5099792;27;20039;-87
2024/03/25 01:22:41;;;;;;;0.10;0.10;;;;;;;;;;5099721;27;20039;-86
2024/03/25 01:25:07;;;;;;;0.10;0.10;;;;;;;;;;5117021;27;20035;-87
2024/03/25 01:27:33;;;;;;;0.10;0.10;;;;;;;;;;5133724;27;20118;-86
2024/03/25 01:30:00;;;;;;;0.10;0.10;;;;;;;;;;5116487;27;20092;-86
2024/03/25 01:32:26;;;;;;;0.10;0.10;;;;;;;;;;5116833;27;20039;-87
2024/03/25 01:34:52;;;;;;;0.10;0.10;;;;;;;;;;5100036;27;20043;-87
2024/03/25 01:37:18;;;;;;;0.10;0.10;;;;;;;;;;5099574;27;20154;-87
2024/03/25 01:39:44;;;;;;;0.10;0.10;;;;;;;;;;5133509;27;20483;-87
2024/03/25 01:42:10;;;;;;;0.10;0.10;;;;;;;;;;5116257;27;20043;-87
2024/03/25 01:44:37;;;;;;;0.10;0.10;;;;;;;;;;5116631;27;20032;-88
2024/03/25 01:47:03;;;;;;;0.10;0.10;;;;;;;;;;5116054;27;20118;-87
2024/03/25 01:49:29;;;;;;;0.10;0.10;;;;;;;;;;5116471;27;20447;-87
2024/03/25 01:51:55;;;;;;;0.10;0.10;;;;;;;;;;5116226;27;20129;-88
2024/03/25 01:54:21;;;;;;;0.10;0.10;;;;;;;;;;5116317;27;20050;-87
2024/03/25 01:56:48;;;;;;;0.13;0.13;;;;;;;;;;5116086;27;20160;-86
2024/03/25 01:59:15;;;;;;;0.10;0.10;;;;;;;;;;5132956;27;20054;-86
2024/03/25 02:01:41;;;;;;;0.10;0.10;;;;;;;;;;5132732;27;20377;-86
2024/03/25 02:04:07;;;;;;;0.10;0.10;;;;;;;;;;5115987;27;20054;-86
2024/03/25 02:06:33;;;;;;;0.10;0.10;;;;;;;;;;5116024;27;20035;-86
2024/03/25 02:08:59;;;;;;;0.10;0.10;;;;;;;;;;5099055;27;20071;-87
2024/03/25 02:11:25;;;;;;;0.10;0.10;;;;;;;;;;5115785;27;20039;-86
2024/03/25 02:13:51;;;;;;;0.10;0.10;;;;;;;;;;5132796;27;20047;-86
2024/03/25 02:16:17;;;;;;;0.10;0.10;;;;;;;;;;5098762;27;20054;-86
2024/03/25 02:18:43;;;;;;;0.10;0.10;;;;;;;;;;5098589;27;20039;-86
2024/03/25 02:21:10;;;;;;;0.10;0.10;;;;;;;;;;5098812;27;20425;-86
2024/03/25 02:23:36;;;;;;;0.10;0.10;;;;;;;;;;5097926;27;20031;-87
2024/03/25 02:26:02;;;;;;;0.10;0.10;;;;;;;;;;5115897;27;20051;-87
2024/03/25 02:28:28;;;;;;;0.20;0.20;;;;;;;;;;5132986;27;20421;-87
2024/03/25 02:30:54;;;;;;;0.10;0.10;;;;;;;;;;5115408;27;20035;-87
2024/03/25 02:33:20;;;;;;;0.13;0.13;;;;;;;;;;5098448;27;20035;-86
2024/03/25 02:35:46;;;;;;;0.40;0.40;;;;;;;;;;5098569;27;20035;-87
2024/03/25 02:38:14;;;;;;;0.10;0.10;;;;;;;;;;5115545;27;20074;-86
2024/03/25 02:40:40;;;;;;;0.10;0.10;;;;;;;;;;5098538;27;20135;-87
2024/03/25 02:43:07;;;;;;;0.10;0.10;;;;;;;;;;5115277;27;20043;-87
2024/03/25 02:45:33;;;;;;;0.10;0.10;;;;;;;;;;5098447;27;20046;-87
2024/03/25 02:47:59;;;;;;;0.70;0.45;;;;;;;;;;5115268;27;20081;-87
2024/03/25 02:50:25;;;;;;;0.10;0.10;;;;;;;;;;5115672;27;20091;-87
2024/03/25 02:52:51;;;;;;;0.10;0.10;;;;;;;;;;5132497;27;20043;-87
2024/03/25 02:55:17;;;;;;;0.10;0.10;;;;;;;;;;5098324;28;20042;-88
2024/03/25 02:57:43;;;;;;;0.10;0.10;;;;;;;;;;5132081;27;20039;-87
2024/03/25 03:00:10;;;;;;;0.20;0.20;;;;;;;;;;5097651;27;20378;-87
2024/03/25 03:02:36;;;;;;;0.30;0.30;;;;;;;;;;5114871;27;20179;-87
2024/03/25 03:05:03;;;;;;;0.10;0.10;;;;;;;;;;5132020;27;20092;-87
2024/03/25 03:07:29;;;;;;;0.10;0.10;;;;;;;;;;5098446;27;20050;-87
2024/03/25 03:09:55;;;;;;;0.10;0.10;;;;;;;;;;5114920;28;20091;-87
2024/03/25 03:12:21;;;;;;;0.10;0.10;;;;;;;;;;5114985;28;20601;-87
2024/03/25 03:14:48;;;;;;;0.10;0.10;;;;;;;;;;5114827;27;20483;-87
2024/03/25 03:17:14;;;;;;;3.95;1.20;;;;;;;;;;5115047;28;20083;-86
2024/03/25 03:19:40;;;;;;;0.10;0.10;;;;;;;;;;5114585;28;20058;-87
2024/03/25 03:22:06;;;;;;;0.10;0.10;;;;;;;;;;5131819;27;20039;-86
2024/03/25 03:24:32;;;;;;;0.10;0.10;;;;;;;;;;5114971;28;20078;-87
2024/03/25 03:26:58;;;;;;;0.10;0.10;;;;;;;;;;5131861;27;20039;-87
2024/03/25 03:29:24;;;;;;;0.10;0.10;;;;;;;;;;5097742;27;20108;-88
2024/03/25 03:31:50;;;;;;;0.10;0.10;;;;;;;;;;5114701;28;20047;-88
2024/03/25 03:34:16;;;;;;;0.10;0.10;;;;;;;;;;5098677;27;20043;-87
2024/03/25 03:36:42;;;;;;;0.10;0.10;;;;;;;;;;5118845;27;20512;-87
2024/03/25 03:39:11;;;;;;;0.10;0.10;;;;;;;;;;5101889;27;20045;-87
2024/03/25 03:41:37;;;;;;;0.10;0.10;;;;;;;;;;5119026;27;20046;-87
2024/03/25 03:44:03;;;;;;;0.20;0.20;;;;;;;;;;5101808;27;20035;-88
2024/03/25 03:46:29;;;;;;;0.10;0.10;;;;;;;;;;5118971;27;20104;-87
2024/03/25 03:48:55;;;;;;;0.10;0.10;;;;;;;;;;5118467;27;20500;-86
2024/03/25 03:51:21;;;;;;;0.10;0.10;;;;;;;;;;5118599;27;20035;-87
2024/03/25 03:53:47;;;;;;;0.10;0.10;;;;;;;;;;5118449;27;20042;-87
2024/03/25 03:56:13;;;;;;;0.10;0.10;;;;;;;;;;5118733;27;20065;-86
2024/03/25 03:58:39;;;;;;;0.10;0.10;;;;;;;;;;5118220;27;20122;-86
2024/03/25 04:01:05;;;;;;;0.10;0.10;;;;;;;;;;5135227;27;20524;-86
2024/03/25 04:03:31;;;;;;;0.10;0.10;;;;;;;;;;5101346;27;20121;-86
2024/03/25 04:05:57;;;;;;;0.10;0.10;;;;;;;;;;5135460;27;20120;-87
2024/03/25 04:08:23;;;;;;;0.10;0.10;;;;;;;;;;5135257;27;20039;-87
2024/03/25 04:10:49;;;;;;;0.10;0.10;;;;;;;;;;5101146;27;20039;-87
2024/03/25 04:13:16;;;;;;;0.10;0.10;;;;;;;;;;5135244;27;20046;-86
2024/03/25 04:15:43;;;;;;;0.10;0.10;;;;;;;;;;5118289;27;20043;-87
2024/03/25 04:18:09;;;;;;;0.10;0.10;;;;;;;;;;5135075;27;20125;-87
2024/03/25 04:20:41;;;;;;;0.10;0.10;;;;;;;;;;5118128;27;20070;-86
2024/03/25 04:23:07;;;;;;;;;;;;;;;;;;5118339;27;20039;-86
2024/03/25 04:25:34;;;;;;;0.10;0.10;;;;;;;;;;5134977;27;19922;-87
2024/03/25 04:28:00;;;;;;;0.10;0.10;;;;;;;;;;5118050;27;20042;-87
2024/03/25 04:30:26;;;;;;;0.10;0.10;;;;;;;;;;5100788;27;20122;-89
2024/03/25 04:32:52;;;;;;;2.10;0.32;;;;;;;;;;5118079;27;20050;-88
2024/03/25 04:35:18;;;;;;;0.10;0.10;;;;;;;;;;5101434;27;20050;-89
2024/03/25 04:37:44;;;;;;;0.10;0.10;;;;;;;;;;5118025;27;20035;-88
2024/03/25 04:40:10;;;;;;;0.10;0.10;;;;;;;;;;5100989;27;20039;-89
2024/03/25 04:42:36;;;;;;;0.10;0.10;;;;;;;;;;5101083;27;20035;-88
2024/03/25 04:45:02;;;;;;;0.10;0.10;;;;;;;;;;5101464;27;20126;-87
2024/03/25 04:47:28;;;;;;;0.10;0.10;;;;;;;;;;5100097;27;20063;-88
2024/03/25 04:49:54;;;;;;;0.10;0.10;;;;;;;;;;5117876;27;20054;-87
2024/03/25 04:52:23;;;;;;;0.80;0.80;;;;;;;;;;5134841;27;20039;-87
2024/03/25 04:54:49;;;;;;;0.10;0.10;;;;;;;;;;5117460;27;20050;-88
2024/03/25 04:57:15;;;;;;;0.10;0.10;;;;;;;;;;5134424;27;20482;-87
2024/03/25 04:59:41;;;;;;;0.10;0.10;;;;;;;;;;5117434;27;20485;-87
2024/03/25 05:02:08;;;;;;;0.10;0.10;;;;;;;;;;5117024;27;20090;-88
2024/03/25 05:04:34;;;;;;;0.10;0.10;;;;;;;;;;5117415;27;20067;-87
2024/03/25 05:07:00;;;;;;;0.10;0.10;;;;;;;;;;5117433;27;20081;-87
2024/03/25 05:09:26;;;;;;;0.10;0.10;;;;;;;;;;5100315;27;20102;-88
2024/03/25 05:11:52;;;;;;;0.52;0.20;;;;;;;;;;5100041;27;20108;-87
2024/03/25 05:14:18;;;;;;;0.10;0.10;;;;;;;;;;5100001;27;20042;-87
2024/03/25 05:16:44;;;;;;;0.10;0.10;;;;;;;;;;5099998;27;20039;-87
2024/03/25 05:19:10;;;;;;;0.10;0.10;;;;;;;;;;5134529;27;20071;-87
2024/03/25 05:21:36;;;;;;;0.10;0.10;;;;;;;;;;5117399;27;20035;-87
2024/03/25 05:24:02;;;;;;;0.10;0.10;;;;;;;;;;5116935;27;20035;-87
2024/03/25 05:26:28;;;;;;;0.10;0.10;;;;;;;;;;5117074;27;20035;-88
2024/03/25 05:28:54;;;;;;;0.10;0.10;;;;;;;;;;5134250;27;20127;-88
2024/03/25 05:31:20;;;;;;;0.13;0.13;;;;;;;;;;5099736;27;20443;-88
2024/03/25 05:33:46;;;;;;;0.10;0.10;;;;;;;;;;5099835;27;20039;-88
2024/03/25 05:36:12;;;;;;;0.10;0.10;;;;;;;;;;5100065;27;20096;-87
2024/03/25 05:38:38;;;;;;;0.63;0.35;;;;;;;;;;5099996;27;20039;-87
2024/03/25 05:41:04;;;;;;;0.10;0.10;;;;;;;;;;5117613;27;20043;-89
2024/03/25 05:43:30;;;;;;;0.10;0.10;;;;;;;;;;5119025;27;20042;-88
2024/03/25 05:45:57;;;;;;;0.10;0.10;;;;;;;;;;5118620;27;20035;-88
2024/03/25 05:48:26;;;;;;;0.10;0.10;;;;;;;;;;5117073;27;20035;-89
2024/03/25 05:50:59;;;;;;;0.10;0.10;;;;;;;;;;5116267;27;20035;-88
2024/03/25 05:53:26;;;;;;;0.10;0.10;;;;;;;;;;5099323;27;20129;-87
2024/03/25 05:55:52;;;;;;;0.10;0.10;;;;;;;;;;5116200;27;20050;-86
2024/03/25 05:58:18;;;;;;;0.10;0.10;;;;;;;;;;5116673;27;20043;-87
2024/03/25 06:00:46;;;;;;;0.10;0.10;;;;;;;;;;5116105;27;20043;-87
2024/03/25 06:03:12;;;;;;;0.10;0.10;;;;;;;;;;5115989;27;20047;-87
2024/03/25 06:05:38;;;;;;;0.10;0.10;;;;;;;;;;5133379;27;20393;-88
2024/03/25 06:08:05;;;;;;;0.10;0.10;;;;;;;;;;5116125;27;20042;-88
2024/03/25 06:10:35;;;;;;;0.10;0.10;;;;;;;;;;5099067;27;20039;-88
2024/03/25 06:13:01;;;;;;;0.10;0.10;;;;;;;;;;5133275;27;20075;-88
2024/03/25 06:15:27;;;;;;;0.10;0.10;;;;;;;;;;5099130;27;20064;-88
2024/03/25 06:17:53;;;;;;;0.10;0.10;;;;;;;;;;5132885;27;20373;-88
2024/03/25 06:20:19;;;;;;;0.10;0.10;;;;;;;;;;5115746;27;20222;-88
2024/03/25 06:22:45;;;;;;;0.10;0.10;;;;;;;;;;5132974;27;20058;-88
2024/03/25 06:25:11;;;;;;;0.10;0.10;;;;;;;;;;5115897;27;20031;-88
2024/03/25 06:27:37;;;;;;;0.20;0.20;;;;;;;;;;5133070;27;20039;-88
2024/03/25 06:35:33;;;;;;;0.10;0.10;;;;;;;;;;5136956;27;20088;-90
2024/03/25 06:37:59;;;;;;;0.10;0.10;;;;;;;;;;5100254;27;20043;-89
2024/03/25 06:40:25;;;;;;;0.10;0.10;;;;;;;;;;5117816;27;20044;-87
2024/03/25 06:42:51;;;;;;;0.10;0.10;;;;;;;;;;5116042;27;20160;-86
2024/03/25 06:45:17;;;;;;;0.10;0.10;;;;;;;;;;5098784;27;20046;-87
2024/03/25 06:47:43;;;;;;;0.10;0.10;;;;;;;;;;5098395;27;20118;-88
2024/03/25 06:50:10;;;;;;;0.20;0.20;;;;;;;;;;5115624;27;20042;-87
2024/03/25 06:52:36;;;;;;;0.10;0.10;;;;;;;;;;5098874;27;20042;-87
2024/03/25 06:55:02;;;;;;;0.10;0.10;;;;;;;;;;5132915;27;20031;-86
2024/03/25 06:57:29;;;;;;;0.22;0.22;;;;;;;;;;5132526;27;20043;-85
2024/03/25 06:59:57;;;;;;;0.10;0.10;;;;;;;;;;5115074;27;20092;-86
2024/03/25 07:02:23;;;;;;;0.10;0.10;;;;;;;;;;5114954;27;20506;-86
2024/03/25 07:04:49;;;;;;;0.10;0.10;;;;;;;;;;5114990;27;20092;-85
2024/03/25 07:07:15;;;;;;;0.10;0.10;;;;;;;;;;5114850;27;20036;-85
2024/03/25 07:09:41;;;;;;;0.10;0.10;;;;;;;;;;5114748;27;20039;-87
2024/03/25 07:12:08;;;;;;;0.10;0.10;;;;;;;;;;5114617;28;20035;-86
2024/03/25 07:14:34;;;;;;;0.10;0.10;;;;;;;;;;5115144;27;20071;-85
2024/03/25 07:17:00;;;;;;;0.10;0.10;;;;;;;;;;5097930;28;20043;-86
2024/03/25 07:19:26;;;;;;;0.10;0.10;;;;;;;;;;5115008;28;20042;-86
2024/03/25 07:21:52;;;;;;;0.10;0.10;;;;;;;;;;5131984;28;20063;-87
2024/03/25 07:24:18;;;;;;;0.13;0.13;;;;;;;;;;5114744;28;20035;-87
2024/03/25 07:26:44;;;;;;;0.10;0.10;;;;;;;;;;5114997;27;20156;-87
2024/03/25 07:29:10;;;;;;;0.10;0.10;;;;;;;;;;5114849;28;20043;-87
2024/03/25 07:31:36;;;;;;;0.10;0.10;;;;;;;;;;5097706;28;20031;-88
2024/03/25 07:34:02;;;;;;;0.10;0.10;;;;;;;;;;5098171;28;20043;-87
2024/03/25 07:36:32;;;;;;;0.10;0.10;;;;;;;;;;5097809;28;20398;-86
2024/03/25 07:38:58;;;;;;;0.10;0.10;;;;;;;;;;5115268;28;20046;-87
2024/03/25 07:41:24;;;;;;;0.10;0.10;;;;;;;;;;5097824;27;20138;-87
2024/03/25 07:43:50;;;;;;;0.10;0.10;;;;;;;;;;5097630;28;20505;-87
2024/03/25 07:46:16;;;;;;;0.10;0.10;;;;;;;;;;5114842;28;20035;-85
2024/03/25 07:48:42;;;;;;;0.10;0.10;;;;;;;;;;5113346;28;20439;-86
2024/03/25 07:51:08;;;;;;;0.10;0.10;;;;;;;;;;5130835;28;20035;-88
2024/03/25 07:53:34;;;;;;;0.10;0.10;;;;;;;;;;5097537;28;20039;-88
2024/03/25 07:56:00;;;;;;;0.10;0.10;;;;;;;;;;5114302;28;20109;-93
2024/03/25 07:58:26;;;;;;;0.10;0.10;;;;;;;;;;5099080;28;20060;-91
2024/03/25 08:00:52;;;;;;;0.10;0.10;;;;;;;;;;5098621;28;20158;-91
2024/03/25 08:03:18;;;;;;;0.10;0.10;;;;;;;;;;5098714;28;20478;-90
2024/03/25 08:05:44;;;;;;;0.50;0.50;;;;;;;;;;5115104;28;20038;-95
2024/03/25 08:08:10;;;;;;;0.20;0.20;;;;;;;;;;5098452;28;20046;-91
2024/03/25 08:10:37;;;;;;;0.20;0.20;;;;;;;;;;5097755;27;20031;-91
2024/03/25 08:13:04;;;;;;;0.10;0.10;;;;;;;;;;5097588;28;20486;-90
2024/03/25 08:15:30;;;;;;;5.68;0.30;;;;;;;;;;5115362;28;20039;-91
2024/03/25 08:17:56;;;;;;;0.10;0.10;;;;;;;;;;5133453;28;20043;-92
2024/03/25 08:20:22;;;;;;;4.38;0.47;;;;;;;;;;5132057;27;20054;-92
2024/03/25 08:22:49;;;;;;;0.10;0.10;;;;;;;;;;5118542;27;20393;-92
2024/03/25 08:25:15;;;;;;;0.20;0.20;;;;;;;;;;5119723;27;20035;-90
2024/03/25 08:27:42;;;;;;;0.10;0.10;;;;;;;;;;5118969;27;20035;-92
2024/03/25 08:30:08;;;;;;;0.20;0.20;;;;;;;;;;5118302;27;20078;-90
2024/03/25 08:32:34;;;;;;;0.10;0.10;;;;;;;;;;5101808;27;20081;-90
2024/03/25 08:35:00;;;;;;;0.20;0.20;;;;;;;;;;5118538;27;20202;-92
2024/03/25 08:37:26;;;;;;;0.20;0.20;;;;;;;;;;5135434;27;20043;-88
2024/03/25 08:39:52;;;;;;;0.17;0.17;;;;;;;;;;5117701;27;20050;-88
2024/03/25 08:42:18;;;;;;;0.20;0.20;;;;;;;;;;5117898;27;20046;-88
2024/03/25 08:44:44;;;;;;;0.10;0.10;;;;;;;;;;5101027;27;20152;-89
2024/03/25 08:47:10;;;;;;;0.10;0.10;;;;;;;;;;5100678;27;20069;-88
2024/03/25 08:49:36;;;;;;;0.10;0.10;;;;;;;;;;5100746;27;20071;-89
2024/03/25 08:52:02;;;;;;;1.10;0.22;;;;;;;;;;5117167;27;20039;-86
2024/03/25 08:54:28;;;;;;;0.10;0.10;;;;;;;;;;5100456;27;20046;-86
2024/03/25 08:56:54;;;;;;;0.20;0.20;;;;;;;;;;5117596;27;20039;-87
2024/03/25 08:59:20;;;;;;;0.10;0.10;;;;;;;;;;5134175;27;20043;-86
2024/03/25 09:01:47;;;;;;;0.10;0.10;;;;;;;;;;5100256;27;20059;-92
2024/03/25 09:04:14;;;;;;;0.10;0.10;;;;;;;;;;5101698;27;20063;-91
2024/03/25 09:06:40;;;;;;;0.10;0.10;;;;;;;;;;5096081;28;20065;-90
2024/03/25 09:11:51;;;;;;;0.10;0.10;;;;;;;;;;5114358;28;20092;-91
2024/03/25 09:14:17;;;;;;;0.22;0.20;;;;;;;;;;5097253;28;20256;-89
2024/03/25 09:16:43;;;;;;;0.10;0.10;;;;;;;;;;5096465;28;20119;-88
2024/03/25 09:19:09;;;;;;;0.10;0.10;;;;;;;;;;5096689;28;20172;-89
2024/03/25 09:21:35;;;;;;;0.30;0.30;;;;;;;;;;5096502;28;20039;-88
2024/03/25 09:24:01;;;;;;;1.45;1.20;;;;;;;;;;5096566;28;20039;-88
2024/03/25 09:26:28;;;;;;;0.75;0.65;;;;;;;;;;5096916;28;20043;-89
2024/03/25 09:28:53;;;;;;;0.10;0.10;;;;;;;;;;5079558;28;20039;-87
2024/03/25 09:31:19;;;;;;;0.10;0.10;;;;;;;;;;5079506;28;20127;-88
2024/03/25 09:33:46;;;;;;;0.10;0.10;;;;;;;;;;5095978;28;20475;-86
2024/03/25 09:36:12;;;;;;;0.10;0.10;;;;;;;;;;5079649;28;20093;-88
2024/03/25 09:38:38;;;;;;;0.10;0.10;;;;;;;;;;5096548;28;20035;-90
2024/03/25 09:41:04;;;;;;;0.10;0.10;;;;;;;;;;5079658;28;20047;-88
2024/03/25 09:43:33;;;;;;;1.35;0.30;;;;;;;;;;5113465;28;20441;-87
2024/03/25 09:46:01;;;;;;;0.10;0.10;;;;;;;;;;5096365;28;20040;-87
2024/03/25 09:48:26;;;;;;;0.10;0.10;;;;;;;;;;5079023;28;20032;-88
2024/03/25 09:50:53;;;;;;;0.10;0.10;;;;;;;;;;5095942;28;20046;-87
2024/03/25 09:53:19;;;;;;;0.10;0.10;;;;;;;;;;5079048;28;20076;-87
2024/03/25 09:55:47;;;;;;;0.10;0.10;;;;;;;;;;5095778;28;20039;-88
2024/03/25 09:58:13;;;;;;;0.10;0.10;;;;;;;;;;5095797;28;20549;-86
2024/03/25 10:00:39;;;;;;;0.10;0.10;;;;;;;;;;5078493;28;20734;-86
2024/03/25 10:03:06;;;;;;;0.10;0.10;;;;;;;;;;5107583;27;20379;-86
2024/03/25 10:05:32;;;;;;;0.20;0.20;;;;;;;;;;5116068;27;20383;-89
2024/03/25 10:07:58;;;;;;;0.10;0.10;;;;;;;;;;5099109;27;20524;-87
2024/03/25 10:10:26;;;;;;;1.38;0.95;;;;;;;;;;5115639;27;20046;-87
2024/03/25 10:12:52;;;;;;;0.10;0.10;;;;;;;;;;5115717;27;20034;-88
2024/03/25 10:15:18;;;;;;;0.10;0.10;;;;;;;;;;5115906;27;20075;-86
2024/03/25 10:17:44;;;;;;;0.10;0.10;;;;;;;;;;5115839;27;20094;-86
2024/03/25 10:20:16;;;;;;;0.20;0.20;;;;;;;;;;5115659;27;20035;-87
2024/03/25 10:22:42;;;;;;;;;;;;;;;;;;5115871;27;20077;-90
2024/03/25 10:25:08;;;;;;;0.10;0.10;;;;;;;;;;5115348;27;19919;-88
2024/03/25 10:27:34;;;;;;;0.20;0.20;;;;;;;;;;5115498;27;20037;-86
2024/03/25 10:30:00;;;;;;;0.10;0.10;;;;;;;;;;5132579;27;20038;-86
2024/03/25 10:32:28;;;;;;;0.10;0.10;;;;;;;;;;5115689;27;20388;-90
2024/03/25 10:34:54;;;;;;;0.10;0.10;;;;;;;;;;5132530;27;20078;-85
2024/03/25 10:37:21;;;;;;;0.10;0.10;;;;;;;;;;5094648;28;20074;-90
2024/03/25 10:39:48;;;;;;;0.30;0.30;;;;;;;;;;5095202;28;20075;-87
2024/03/25 10:42:14;;;;;;;0.10;0.10;;;;;;;;;;5094617;28;20075;-88
2024/03/25 10:44:41;;;;;;;0.20;0.20;;;;;;;;;;5094140;28;20105;-88
2024/03/25 10:47:07;;;;;;;0.10;0.10;;;;;;;;;;5094660;28;20040;-88
2024/03/25 10:49:44;;;;;;;0.10;0.10;;;;;;;;;;5094730;28;20435;-88
2024/03/25 10:52:10;;;;;;;0.10;0.10;;;;;;;;;;5094774;28;20579;-87
2024/03/25 10:54:36;;;;;;;0.20;0.20;;;;;;;;;;5112219;28;20043;-89
2024/03/25 10:57:02;;;;;;;0.25;0.25;;;;;;;;;;5082492;28;20060;-87
2024/03/25 10:59:28;;;;;;;0.10;0.10;;;;;;;;;;5095080;28;20075;-87
2024/03/25 11:01:54;;;;;;;0.10;0.10;;;;;;;;;;5094392;28;20446;-87
2024/03/25 11:04:21;;;;;;;0.10;0.10;;;;;;;;;;5111802;28;20120;-87
2024/03/25 11:06:47;;;;;;;0.10;0.10;;;;;;;;;;5094761;28;20047;-89
2024/03/25 11:09:26;;;;;;;0.10;0.10;;;;;;;;;;5102601;27;20061;-89
2024/03/25 11:11:55;;;;;;;0.20;0.20;;;;;;;;;;5098659;27;20475;-89
2024/03/25 11:14:21;;;;;;;0.10;0.10;;;;;;;;;;5098773;28;20088;-89
2024/03/25 11:16:53;;;;;;;0.10;0.10;;;;;;;;;;5098466;28;20039;-88
2024/03/25 11:19:19;;;;;;;0.10;0.10;;;;;;;;;;5098191;28;20038;-88
2024/03/25 11:21:45;;;;;;;0.10;0.10;;;;;;;;;;5098143;28;20046;-89
2024/03/25 11:24:11;;;;;;;0.10;0.10;;;;;;;;;;5115129;28;20347;-89
2024/03/25 11:26:41;;;;;;;0.10;0.10;;;;;;;;;;5116027;28;20427;-93
2024/03/25 11:29:07;;;;;;;0.20;0.20;;;;;;;;;;5115675;28;20032;-92
2024/03/25 11:31:38;;;;;;;0.10;0.10;;;;;;;;;;5116363;28;20082;-92
2024/03/25 11:34:08;;;;;;;0.10;0.10;;;;;;;;;;5116231;28;20386;-91
2024/03/25 11:36:35;;;;;;;0.10;0.10;;;;;;;;;;5098439;28;20031;-92
2024/03/25 11:39:04;;;;;;;0.10;0.10;;;;;;;;;;5115897;28;20035;-92
2024/03/25 11:41:30;;;;;;;0.10;0.10;;;;;;;;;;5131551;28;20070;-88
2024/03/25 11:43:56;;;;;;;0.10;0.10;;;;;;;;;;5097763;28;20147;-86
2024/03/25 11:46:25;;;;;;;0.10;0.10;;;;;;;;;;5097644;28;20487;-87
2024/03/25 11:48:51;;;;;;;0.10;0.10;;;;;;;;;;5114757;28;20043;-86
2024/03/25 11:51:20;;;;;;;0.10;0.10;;;;;;;;;;5114651;28;20035;-87
2024/03/25 11:53:46;;;;;;;0.22;0.22;;;;;;;;;;5114446;28;20045;-86
2024/03/25 11:56:12;;;;;;;0.10;0.10;;;;;;;;;;5116684;27;20039;-88
2024/03/25 11:58:38;;;;;;;0.10;0.10;;;;;;;;;;5118146;27;20490;-86
2024/03/25 12:01:04;;;;;;;0.10;0.10;;;;;;;;;;5118130;27;20055;-86
2024/03/25 12:03:30;;;;;;;0.10;0.10;;;;;;;;;;5118129;27;20039;-86
2024/03/25 12:05:57;;;;;;;0.10;0.10;;;;;;;;;;5118028;27;20035;-86
2024/03/25 12:08:27;;;;;;;0.10;0.10;;;;;;;;;;5101279;27;20070;-89
2024/03/25 12:13:42;;;;;;;0.28;0.20;;;;;;;;;;5120905;27;20126;-88
2024/03/25 12:16:08;;;;;;;0.10;0.10;;;;;;;;;;5101327;27;20039;-89
2024/03/25 12:18:35;;;;;;;0.10;0.10;;;;;;;;;;5101306;27;20050;-89
2024/03/25 12:21:02;;;;;;;0.10;0.10;;;;;;;;;;5118652;27;20358;-89
2024/03/25 12:23:29;;;;;;;0.10;0.10;;;;;;;;;;5118183;27;20046;-88
2024/03/25 12:25:55;;;;;;;0.10;0.10;;;;;;;;;;5118286;27;20042;-89
2024/03/25 12:28:21;;;;;;;0.10;0.10;;;;;;;;;;5135018;27;20040;-89
2024/03/25 12:30:51;;;;;;;0.10;0.10;;;;;;;;;;5117687;27;20561;-88
2024/03/25 12:33:17;;;;;;;0.10;0.10;;;;;;;;;;5100809;27;20035;-90
2024/03/25 12:35:47;;;;;;;0.10;0.10;;;;;;;;;;5118047;27;20043;-88
2024/03/25 12:38:28;;;;;;;0.10;0.10;;;;;;;;;;5117568;27;20118;-87
2024/03/25 12:40:55;;;;;;;0.30;0.30;;;;;;;;;;5117875;27;20047;-87
2024/03/25 12:43:21;;;;;;;0.10;0.10;;;;;;;;;;5117432;27;20811;-86
2024/03/25 12:45:48;;;;;;;0.10;0.10;;;;;;;;;;5117475;27;20656;-87
2024/03/25 12:48:14;;;;;;;0.20;0.20;;;;;;;;;;5117471;27;20118;-87
2024/03/25 12:50:40;;;;;;;0.10;0.10;;;;;;;;;;5117256;27;20043;-88
2024/03/25 12:53:06;;;;;;;0.10;0.10;;;;;;;;;;5134384;27;20388;-86
2024/03/25 12:55:32;;;;;;;0.10;0.10;;;;;;;;;;5100357;27;20074;-87
2024/03/25 12:57:58;;;;;;;0.10;0.10;;;;;;;;;;5100102;27;20458;-87
2024/03/25 13:00:24;;;;;;;0.20;0.20;;;;;;;;;;5117547;27;20047;-88
2024/03/25 13:02:50;;;;;;;0.15;0.15;;;;;;;;;;5117398;27;20061;-88
2024/03/25 13:05:16;;;;;;;0.10;0.10;;;;;;;;;;5117428;27;20374;-88
2024/03/25 13:07:42;;;;;;;0.10;0.10;;;;;;;;;;5099542;27;20131;-88
2024/03/25 13:10:09;;;;;;;0.10;0.10;;;;;;;;;;5100175;27;20030;-88
2024/03/25 13:12:35;;;;;;;0.10;0.10;;;;;;;;;;5100061;27;20133;-88
2024/03/25 13:15:00;;;;;;;0.10;0.10;;;;;;;;;;5134133;27;20562;-88
2024/03/25 13:17:26;;;;;;;0.10;0.10;;;;;;;;;;5134151;27;20039;-88
2024/03/25 13:19:52;;;;;;;0.10;0.10;;;;;;;;;;5116894;27;20406;-89
2024/03/25 13:22:18;;;;;;;0.10;0.10;;;;;;;;;;5117489;27;20031;-90
2024/03/25 13:24:44;;;;;;;0.10;0.10;;;;;;;;;;5117625;27;20035;-90
2024/03/25 13:27:10;;;;;;;0.10;0.10;;;;;;;;;;5117725;27;20039;-88
2024/03/25 13:29:37;;;;;;;0.10;0.10;;;;;;;;;;5100195;27;20076;-88
2024/03/25 13:32:03;;;;;;;0.10;0.10;;;;;;;;;;5133973;27;20035;-88
2024/03/25 13:34:29;;;;;;;0.10;0.10;;;;;;;;;;5116589;27;20035;-87
2024/03/25 13:36:55;;;;;;;0.10;0.10;;;;;;;;;;5116553;27;20035;-87
2024/03/25 13:39:21;;;;;;;0.20;0.20;;;;;;;;;;5116500;27;20035;-87
2024/03/25 13:41:48;;;;;;;0.10;0.10;;;;;;;;;;5116285;27;20058;-87
2024/03/25 13:44:14;;;;;;;0.20;0.20;;;;;;;;;;5099494;27;20035;-87
2024/03/25 13:46:40;;;;;;;0.10;0.10;;;;;;;;;;5116360;27;20053;-86
2024/03/25 13:49:06;;;;;;;0.10;0.10;;;;;;;;;;5116596;27;20035;-86
2024/03/25 13:51:32;;;;;;;0.10;0.10;;;;;;;;;;5116743;27;20565;-86
2024/03/25 13:53:58;;;;;;;0.10;0.10;;;;;;;;;;5116293;27;20035;-88
2024/03/25 13:56:24;;;;;;;0.10;0.10;;;;;;;;;;5116388;27;20331;-87
2024/03/25 13:58:50;;;;;;;0.10;0.10;;;;;;;;;;5115842;27;20042;-86
2024/03/25 14:01:17;;;;;;;0.10;0.10;;;;;;;;;;5115509;27;20059;-86
2024/03/25 14:03:43;;;;;;;0.10;0.10;;;;;;;;;;5098782;27;20076;-86
2024/03/25 14:06:10;;;;;;;0.10;0.10;;;;;;;;;;5116025;27;20074;-85
2024/03/25 14:08:36;;;;;;;0.10;0.10;;;;;;;;;;5115799;27;20075;-86
2024/03/25 14:11:02;;;;;;;0.10;0.10;;;;;;;;;;5115677;27;20134;-86
2024/03/25 14:13:28;;;;;;;0.10;0.10;;;;;;;;;;5115545;27;20405;-86
2024/03/25 14:15:54;;;;;;;0.10;0.10;;;;;;;;;;5115590;27;20050;-87
2024/03/25 14:18:20;;;;;;;0.10;0.10;;;;;;;;;;5115084;27;20405;-86
2024/03/25 14:20:47;;;;;;;0.10;0.10;;;;;;;;;;5114801;27;20039;-86
2024/03/25 14:23:13;;;;;;;0.10;0.10;;;;;;;;;;5115371;27;20483;-86
2024/03/25 14:25:39;;;;;;;0.10;0.10;;;;;;;;;;5132218;27;20047;-85
2024/03/25 14:28:05;;;;;;;0.10;0.10;;;;;;;;;;5115320;27;20035;-86
2024/03/25 14:30:31;;;;;;;0.10;0.10;;;;;;;;;;5115247;27;20092;-86
2024/03/25 14:32:57;;;;;;;0.10;0.10;;;;;;;;;;5115256;27;20039;-86
2024/03/25 14:35:23;;;;;;;0.10;0.10;;;;;;;;;;5115106;27;20064;-86
2024/03/25 14:37:49;;;;;;;0.10;0.10;;;;;;;;;;5132176;27;20039;-90
2024/03/25 14:40:17;;;;;;;0.10;0.10;;;;;;;;;;5098420;27;20121;-90
2024/03/25 14:42:43;;;;;;;0.10;0.10;;;;;;;;;;5116130;27;20043;-90
2024/03/25 14:45:09;;;;;;;0.10;0.10;;;;;;;;;;5098480;27;20054;-86
2024/03/25 14:47:35;;;;;;;0.10;0.10;;;;;;;;;;5098543;27;20088;-88
2024/03/25 14:50:01;;;;;;;0.10;0.10;;;;;;;;;;5098294;27;20045;-87